Estación Meteorológica Peña el Pijo (Robertgarden) [ 09/23/17 05:50:58 CEST ]

Fecha Hora Presion(HPa) Temp (°C) Humedad % Rocio (°C) Viento ( m/s) Direccion Lluvia 1Hora(mm) Lluvia 24H(mm) LLuvia Total(mm)
2017-Jul-07 01:01:42 1012.800 20.5 51 10.0         1430.19
2017-Jul-07 02:01:44 1012.700 19.9 52 9.8         1430.19
2017-Jul-07 03:02:02 1012.800 17.4 64 10.5         1430.19
2017-Jul-07 04:01:48 1011.500 16.5 70 11.0         1430.19
2017-Jul-07 05:02:01 1011.200 16.9 70 11.4         1430.19
2017-Jul-07 06:02:07 1010.400 16.2 72 11.2         1430.19
2017-Jul-07 07:01:56 1010.700 15.4 74 10.8         1430.19
2017-Jul-07 08:01:36 1009.800 16.2 75 11.8         1430.19
2017-Jul-07 09:01:47 1009.800 18.6 67 12.3         1430.19
2017-Jul-07 10:01:47 1010.800 22.8 55 13.2         1430.19
2017-Jul-07 11:02:17 1010.600 21.2 58 12.6         1430.19
2017-Jul-07 12:01:28 1009.300 22.1 59 13.7         1430.19
2017-Jul-07 13:01:52 1010.200 23.9 56 14.6 1.3 NNW 0.51 0.51 1430.71
2017-Jul-07 14:01:56 1009.700 24.4 57 15.3       0.51 1430.71
2017-Jul-07 15:01:37 1009.300 26.2 54 16.1 0.9 SSE   0.51 1430.71
2017-Jul-07 16:01:59 1009.000 28.3 49 16.5       0.51 1430.71
2017-Jul-07 17:01:52 1008.100 29.9 45 16.7       0.51 1430.71
2017-Jul-07 18:01:48 1006.800 24.7 58 15.9       0.51 1430.71
2017-Jul-07 19:01:42 1007.600 21.2 75 16.5     6.73 7.77 1437.96
2017-Jul-07 20:02:05 1007.500 21.8 77 17.6       7.77 1437.96
2017-Jul-07 21:01:44 1007.900 21.4 76 17.0       7.77 1437.96
2017-Jul-07 22:01:47 1009.800 18.6 71 13.2       7.77 1437.96
2017-Jul-07 23:01:53 1010.900 17.2 76 12.9       7.77 1437.96

Temperatura Máxima:29°    Temperatura Mínima:15°
Presión Máxima:1012.800 Hpa    Presión Mínima:1006.800 Hpa


Volver